createdAt,value
2023-04-13T00:00:17.744Z,29.85
2023-04-13T00:03:08.727Z,27.95
2023-04-13T00:05:38.012Z,24.70
2023-04-13T00:08:07.210Z,29.17
2023-04-13T00:10:41.301Z,26.13
2023-04-13T00:13:11.528Z,28.55
2023-04-13T00:15:43.118Z,26.48
2023-04-13T00:18:12.545Z,26.33
2023-04-13T00:20:43.634Z,27.92
2023-04-13T00:23:12.511Z,30.13
2023-04-13T00:25:42.150Z,31.48
2023-04-13T00:28:11.993Z,28.63
2023-04-13T00:30:40.124Z,30.80
2023-04-13T00:33:08.689Z,36.60
2023-04-13T00:35:36.971Z,37.97
2023-04-13T00:38:05.511Z,33.75
2023-04-13T00:40:33.911Z,31.77
2023-04-13T00:43:05.645Z,35.83
2023-04-13T00:48:03.128Z,33.17
2023-04-13T00:50:34.139Z,29.10
2023-04-13T00:53:03.183Z,24.65
2023-04-13T00:55:31.423Z,30.88
2023-04-13T00:58:02.024Z,30.33
2023-04-13T01:00:31.683Z,30.77
2023-04-13T01:03:01.771Z,30.55
2023-04-13T01:05:34.479Z,29.25
2023-04-13T01:08:20.289Z,28.23
2023-04-13T01:10:52.739Z,28.83
2023-04-13T01:13:22.655Z,29.15
2023-04-13T01:16:04.894Z,30.23
2023-04-13T01:18:38.063Z,30.08
2023-04-13T01:21:07.524Z,28.95
2023-04-13T01:23:51.377Z,32.53
2023-04-13T01:26:22.671Z,29.70
2023-04-13T01:28:54.363Z,30.45
2023-04-13T01:33:51.468Z,28.95
2023-04-13T01:36:20.335Z,29.75
2023-04-13T01:38:49.080Z,29.05
2023-04-13T01:41:17.277Z,29.08
2023-04-13T01:43:46.281Z,27.92
2023-04-13T01:46:16.110Z,31.17
2023-04-13T01:48:48.981Z,27.40
2023-04-13T01:51:19.410Z,27.33
2023-04-13T01:53:49.975Z,28.92
2023-04-13T01:56:20.170Z,26.27
2023-04-13T01:58:52.046Z,27.08
2023-04-13T02:03:50.245Z,29.70
2023-04-13T02:06:18.647Z,28.58
2023-04-13T02:08:47.201Z,27.00
2023-04-13T02:11:15.885Z,27.10
2023-04-13T02:13:44.790Z,26.98
2023-04-13T02:16:13.095Z,29.80
2023-04-13T02:18:42.991Z,31.42
2023-04-13T02:21:11.467Z,32.90
2023-04-13T02:23:41.408Z,29.60
2023-04-13T02:26:10.274Z,28.98
2023-04-13T02:28:38.823Z,30.05
2023-04-13T02:31:07.820Z,29.25
2023-04-13T02:33:37.808Z,32.53
2023-04-13T02:36:08.686Z,28.10
2023-04-13T02:38:37.533Z,33.45
2023-04-13T02:41:06.690Z,28.58
2023-04-13T02:43:35.804Z,31.60
2023-04-13T02:46:04.381Z,29.00
2023-04-13T02:48:33.160Z,29.55
2023-04-13T02:51:02.440Z,29.52
2023-04-13T02:53:32.251Z,30.40
2023-04-13T02:56:01.193Z,32.38
2023-04-13T02:58:32.543Z,24.65
2023-04-13T03:01:00.877Z,25.92
2023-04-13T03:03:30.640Z,33.28
2023-04-13T03:05:58.937Z,27.77
2023-04-13T03:08:27.669Z,28.67
2023-04-13T03:10:57.515Z,28.15
2023-04-13T03:13:26.642Z,25.25
2023-04-13T03:15:54.945Z,26.25
2023-04-13T03:18:23.890Z,26.42
2023-04-13T03:20:52.335Z,24.42
2023-04-13T03:23:21.142Z,26.08
2023-04-13T03:25:49.428Z,22.50
2023-04-13T03:28:19.655Z,23.60
2023-04-13T03:30:47.927Z,23.13
2023-04-13T03:33:16.732Z,24.63
2023-04-13T03:35:44.929Z,24.10
2023-04-13T03:38:13.440Z,25.13
2023-04-13T03:40:41.610Z,25.75
2023-04-13T03:43:10.314Z,25.27
2023-04-13T03:45:39.980Z,26.42
2023-04-13T03:48:08.704Z,27.60
2023-04-13T03:50:37.157Z,25.13
2023-04-13T03:53:05.675Z,25.85
2023-04-13T03:55:33.904Z,24.02
2023-04-13T03:58:02.849Z,23.90
2023-04-13T04:00:33.689Z,25.42
2023-04-13T04:03:03.825Z,24.95
2023-04-13T04:05:32.088Z,27.23
2023-04-13T04:08:00.638Z,23.80
2023-04-13T04:10:29.588Z,26.88
2023-04-13T04:12:58.421Z,24.38
2023-04-13T04:15:26.752Z,25.80
2023-04-13T04:17:55.303Z,28.98
2023-04-13T04:20:25.113Z,25.20
2023-04-13T04:22:53.942Z,26.65
2023-04-13T04:25:23.108Z,23.60
2023-04-13T04:27:53.240Z,22.77
2023-04-13T04:30:22.358Z,25.88
2023-04-13T04:32:53.242Z,22.00
2023-04-13T04:35:22.121Z,26.42
2023-04-13T04:37:51.925Z,23.33
2023-04-13T04:40:20.688Z,25.75
2023-04-13T04:42:49.432Z,22.02
2023-04-13T04:45:17.730Z,25.88
2023-04-13T04:47:46.181Z,26.48
2023-04-13T04:50:14.945Z,25.85
2023-04-13T04:52:43.415Z,25.77
2023-04-13T04:55:13.188Z,23.45
2023-04-13T04:57:41.708Z,26.27
2023-04-13T05:00:15.440Z,22.00
2023-04-13T05:02:45.113Z,27.60
2023-04-13T05:05:13.558Z,21.73
2023-04-13T05:07:42.232Z,27.50
2023-04-13T05:10:12.388Z,23.95
2023-04-13T05:12:41.083Z,25.08
2023-04-13T05:15:10.045Z,21.63
2023-04-13T05:17:38.544Z,22.17
2023-04-13T05:20:08.141Z,22.67
2023-04-13T05:22:37.314Z,22.02
2023-04-13T05:25:06.845Z,20.45
2023-04-13T05:27:37.160Z,20.08
2023-04-13T05:30:09.773Z,21.42
2023-04-13T05:32:38.561Z,19.63
2023-04-13T05:35:08.132Z,20.05
2023-04-13T05:37:40.122Z,20.40
2023-04-13T05:40:13.722Z,22.88
2023-04-13T05:42:44.157Z,21.33
2023-04-13T05:45:13.315Z,21.80
2023-04-13T05:47:41.995Z,18.98
2023-04-13T05:50:11.234Z,21.52
2023-04-13T05:52:39.870Z,19.52
2023-04-13T05:55:08.575Z,20.13
2023-04-13T05:57:37.217Z,18.10
2023-04-13T06:00:10.627Z,20.38
2023-04-13T06:02:40.436Z,18.40
2023-04-13T06:05:09.668Z,19.75
2023-04-13T06:07:38.322Z,19.02
2023-04-13T06:10:07.626Z,19.75
2023-04-13T06:12:36.396Z,19.65
2023-04-13T06:15:07.174Z,16.45
2023-04-13T06:17:35.880Z,19.05
2023-04-13T06:20:07.384Z,18.67
2023-04-13T06:22:35.985Z,19.88
2023-04-13T06:25:05.055Z,19.25
2023-04-13T06:27:35.501Z,18.42
2023-04-13T06:30:07.144Z,18.17
2023-04-13T06:32:37.330Z,19.33
2023-04-13T06:35:06.392Z,20.27
2023-04-13T06:37:36.310Z,17.67
2023-04-13T06:40:13.983Z,18.33
2023-04-13T06:42:43.711Z,14.05
2023-04-13T06:45:13.329Z,19.45
2023-04-13T06:47:43.457Z,14.75
2023-04-13T06:50:14.343Z,14.20
2023-04-13T06:52:43.954Z,15.88
2023-04-13T06:55:12.529Z,15.98
2023-04-13T06:57:41.711Z,15.45
2023-04-13T07:00:26.067Z,15.40
2023-04-13T07:03:00.176Z,16.90
2023-04-13T07:05:29.086Z,15.88
2023-04-13T07:07:57.613Z,14.25
2023-04-13T07:10:25.902Z,13.18
2023-04-13T07:12:54.423Z,20.45
2023-04-13T07:15:22.875Z,16.15
2023-04-13T07:17:52.630Z,16.80
2023-04-13T07:20:22.431Z,14.30
2023-04-13T07:22:50.912Z,18.92
2023-04-13T07:25:19.413Z,15.30
2023-04-13T07:27:48.177Z,19.73
2023-04-13T07:30:17.091Z,20.58
2023-04-13T07:32:45.956Z,13.73
2023-04-13T07:35:14.282Z,16.05
2023-04-13T07:37:44.684Z,11.20
2023-04-13T07:40:13.576Z,14.48
2023-04-13T07:42:42.414Z,10.68
2023-04-13T07:45:11.762Z,13.43
2023-04-13T07:47:40.440Z,9.93
2023-04-13T07:50:09.858Z,11.55
2023-04-13T07:52:38.794Z,7.88
2023-04-13T07:55:09.743Z,6.18
2023-04-13T07:57:38.623Z,7.63
2023-04-13T08:00:08.445Z,6.53
2023-04-13T08:02:37.805Z,4.95
2023-04-13T08:05:07.260Z,4.97
2023-04-13T08:07:36.383Z,6.45
2023-04-13T08:10:04.873Z,5.00
2023-04-13T08:12:34.955Z,4.82
2023-04-13T08:15:03.300Z,5.88
2023-04-13T08:17:31.888Z,4.40
2023-04-13T08:20:00.267Z,11.05
2023-04-13T08:22:29.013Z,5.00
2023-04-13T08:24:57.608Z,5.63
2023-04-13T08:27:26.313Z,8.25
2023-04-13T08:30:01.701Z,7.68
2023-04-13T08:32:30.485Z,6.53
2023-04-13T08:34:58.766Z,7.90
2023-04-13T08:37:29.492Z,9.38
2023-04-13T08:40:00.559Z,9.75
2023-04-13T08:42:29.465Z,9.07
2023-04-13T08:45:00.539Z,8.20
2023-04-13T08:47:30.577Z,10.32
2023-04-13T08:49:59.761Z,9.05
2023-04-13T08:52:29.915Z,8.82
2023-04-13T08:55:01.026Z,11.13
2023-04-13T08:57:30.769Z,15.05
2023-04-13T09:00:01.624Z,9.15
2023-04-13T09:02:35.744Z,11.00
2023-04-13T09:05:09.671Z,10.93
2023-04-13T09:07:39.095Z,13.32
2023-04-13T09:10:09.609Z,9.15
2023-04-13T09:12:38.526Z,8.77
2023-04-13T09:15:09.739Z,10.75
2023-04-13T09:17:39.206Z,7.53
2023-04-13T09:20:16.625Z,11.13
2023-04-13T09:22:45.831Z,7.85
2023-04-13T09:25:25.063Z,8.48
2023-04-13T09:27:53.896Z,8.23
2023-04-13T09:30:25.640Z,5.65
2023-04-13T09:33:06.013Z,7.03
2023-04-13T09:35:35.870Z,6.03
2023-04-13T09:38:06.426Z,7.35
2023-04-13T09:40:38.275Z,8.73
2023-04-13T09:43:09.740Z,8.40
2023-04-13T09:45:40.235Z,6.20
2023-04-13T09:48:18.955Z,6.18
2023-04-13T09:50:47.589Z,3.78
2023-04-13T09:53:16.422Z,5.70
2023-04-13T09:55:47.581Z,5.32
2023-04-13T09:58:18.444Z,4.38
2023-04-13T10:00:48.252Z,3.92
2023-04-13T10:08:27.223Z,5.45
2023-04-13T10:11:04.673Z,4.38
2023-04-13T10:13:38.220Z,4.70
2023-04-13T10:16:32.184Z,6.10
2023-04-13T10:19:06.574Z,4.43
2023-04-13T10:21:39.355Z,4.30
2023-04-13T10:24:12.561Z,5.50
2023-04-13T10:26:44.098Z,5.68
2023-04-13T10:29:14.984Z,5.53
2023-04-13T10:31:46.905Z,6.93
2023-04-13T10:34:25.594Z,5.53
2023-04-13T10:36:56.219Z,5.38
2023-04-13T10:39:26.014Z,7.10
2023-04-13T10:42:00.689Z,9.25
2023-04-13T10:44:29.860Z,4.90
2023-04-13T10:47:05.797Z,4.68
2023-04-13T10:49:34.989Z,5.20
2023-04-13T10:52:03.618Z,5.32
2023-04-13T10:54:33.239Z,5.18
2023-04-13T10:57:03.676Z,6.70
2023-04-13T10:59:53.537Z,7.07
2023-04-13T11:02:28.029Z,5.65
2023-04-13T11:04:57.481Z,6.55
2023-04-13T11:07:27.028Z,4.45
2023-04-13T11:12:29.891Z,4.15
2023-04-13T11:14:58.705Z,4.25
2023-04-13T11:17:28.646Z,5.03
2023-04-13T11:19:59.855Z,5.55
2023-04-13T11:22:28.825Z,6.57
2023-04-13T11:25:08.435Z,5.55
2023-04-13T11:27:37.970Z,7.25
2023-04-13T11:30:09.576Z,7.00
2023-04-13T11:32:43.113Z,4.75
2023-04-13T11:35:14.102Z,4.85
2023-04-13T11:37:43.583Z,4.53
2023-04-13T11:40:15.122Z,3.90
2023-04-13T11:42:46.004Z,6.20
2023-04-13T11:45:15.947Z,6.88
2023-04-13T11:47:46.225Z,4.88
2023-04-13T11:50:16.690Z,4.32
2023-04-13T11:52:46.659Z,3.30
2023-04-13T11:55:23.283Z,4.40
2023-04-13T11:57:53.605Z,5.75
2023-04-13T12:00:26.568Z,5.90
2023-04-13T12:05:31.568Z,5.20
2023-04-13T12:10:39.653Z,4.13
2023-04-13T12:18:28.315Z,3.05
2023-04-13T12:21:05.994Z,4.78
2023-04-13T12:23:35.221Z,5.35
2023-04-13T12:26:33.212Z,5.55
2023-04-13T12:29:02.300Z,5.05
2023-04-13T12:31:36.237Z,6.47
2023-04-13T12:34:07.906Z,4.88
2023-04-13T12:36:40.741Z,4.10
2023-04-13T12:39:11.403Z,6.28
2023-04-13T12:41:40.842Z,4.73
2023-04-13T12:44:13.092Z,6.22
2023-04-13T12:46:42.681Z,8.48
2023-04-13T12:49:12.530Z,9.63
2023-04-13T12:51:41.419Z,8.50
2023-04-13T12:54:13.445Z,7.05
2023-04-13T12:56:42.380Z,10.75
2023-04-13T12:59:10.882Z,6.47
2023-04-13T13:01:39.804Z,8.23
2023-04-13T13:04:08.422Z,7.30
2023-04-13T13:06:38.733Z,8.75
2023-04-13T13:09:07.742Z,6.65
2023-04-13T13:11:36.460Z,9.88
2023-04-13T13:14:04.783Z,8.35
2023-04-13T13:16:33.997Z,7.00
2023-04-13T13:19:02.682Z,7.07
2023-04-13T13:21:31.644Z,7.38
2023-04-13T13:24:01.382Z,9.23
2023-04-13T13:26:39.578Z,8.38
2023-04-13T13:29:19.485Z,6.78
2023-04-13T13:31:48.330Z,8.07
2023-04-13T13:34:16.744Z,7.35
2023-04-13T13:36:46.648Z,10.23
2023-04-13T13:39:18.347Z,9.13
2023-04-13T13:41:46.753Z,10.55
2023-04-13T13:44:15.121Z,9.35
2023-04-13T13:46:43.959Z,9.20
2023-04-13T13:49:12.314Z,11.23
2023-04-13T13:51:40.857Z,9.48
2023-04-13T13:54:09.263Z,9.55
2023-04-13T13:56:39.182Z,7.97
2023-04-13T13:59:07.537Z,12.15
2023-04-13T14:01:36.166Z,8.38
2023-04-13T14:04:04.617Z,10.90
2023-04-13T14:06:33.456Z,9.45
2023-04-13T14:09:02.022Z,10.20
2023-04-13T14:11:31.500Z,10.05
2023-04-13T14:14:10.826Z,12.13
2023-04-13T14:16:47.353Z,10.50
2023-04-13T14:19:15.663Z,12.15
2023-04-13T14:21:44.390Z,10.82
2023-04-13T14:24:14.291Z,10.50
2023-04-13T14:26:42.819Z,12.15
2023-04-13T14:29:12.658Z,11.45
2023-04-13T14:31:41.227Z,13.50
2023-04-13T14:34:09.514Z,11.23
2023-04-13T14:36:39.254Z,10.88
2023-04-13T14:39:07.834Z,12.55
2023-04-13T14:41:36.748Z,11.00
2023-04-13T14:44:05.382Z,13.68
2023-04-13T14:46:35.349Z,11.77
2023-04-13T14:49:03.969Z,12.13
2023-04-13T14:51:32.814Z,13.77
2023-04-13T14:54:01.184Z,15.68
2023-04-13T14:56:30.182Z,10.20
2023-04-13T14:58:58.974Z,13.60
2023-04-13T15:01:27.909Z,13.65
2023-04-13T15:03:57.742Z,12.60
2023-04-13T15:06:28.543Z,13.43
2023-04-13T15:08:56.984Z,14.68
2023-04-13T15:11:25.839Z,12.25
2023-04-13T15:13:54.604Z,14.88
2023-04-13T15:16:23.839Z,12.02
2023-04-13T15:18:52.214Z,13.43
2023-04-13T15:21:22.169Z,14.73
2023-04-13T15:23:50.366Z,12.27
2023-04-13T15:26:19.459Z,12.68
2023-04-13T15:28:47.869Z,12.35
2023-04-13T15:31:16.844Z,12.52
2023-04-13T15:33:45.690Z,14.00
2023-04-13T15:36:16.088Z,14.02
2023-04-13T15:38:49.216Z,13.70
2023-04-13T15:41:20.033Z,10.73
2023-04-13T15:43:48.758Z,13.43
2023-04-13T15:46:17.836Z,15.85
2023-04-13T15:48:53.493Z,13.70
2023-04-13T15:51:22.594Z,16.58
2023-04-13T15:53:52.693Z,15.48
2023-04-13T15:56:30.832Z,17.83
2023-04-13T15:59:00.033Z,13.98
2023-04-13T16:01:29.141Z,16.48
2023-04-13T16:04:00.904Z,21.67
2023-04-13T16:06:34.395Z,18.80
2023-04-13T16:09:09.896Z,17.20
2023-04-13T16:11:39.819Z,15.13
2023-04-13T16:14:08.570Z,22.38
2023-04-13T16:16:44.479Z,14.20
2023-04-13T16:19:13.484Z,18.13
2023-04-13T16:21:44.375Z,16.00
2023-04-13T16:24:17.349Z,13.95
2023-04-13T16:26:46.319Z,15.95
2023-04-13T16:29:16.119Z,13.93
2023-04-13T16:31:47.775Z,14.75
2023-04-13T16:34:25.699Z,17.45
2023-04-13T16:36:57.650Z,15.10
2023-04-13T16:39:27.745Z,14.65
2023-04-13T16:41:56.531Z,20.05
2023-04-13T16:44:25.177Z,17.25
2023-04-13T16:46:54.289Z,16.65
2023-04-13T16:49:23.076Z,18.73
2023-04-13T16:51:51.979Z,17.05
2023-04-13T16:54:22.271Z,16.13
2023-04-13T16:56:57.069Z,20.15
2023-04-13T16:59:28.425Z,20.20
2023-04-13T17:01:57.750Z,18.33
2023-04-13T17:04:27.332Z,21.10
2023-04-13T17:07:04.203Z,17.70
2023-04-13T17:09:35.577Z,18.80
2023-04-13T17:12:06.320Z,21.50
2023-04-13T17:14:43.362Z,19.77
2023-04-13T17:17:12.720Z,17.77
2023-04-13T17:19:41.327Z,18.63
2023-04-13T17:22:10.350Z,22.92
2023-04-13T17:24:40.082Z,21.40
2023-04-13T17:27:11.217Z,22.60
2023-04-13T17:29:39.990Z,22.00
2023-04-13T17:32:09.087Z,20.70
2023-04-13T17:34:37.975Z,22.77
2023-04-13T17:37:07.682Z,26.40
2023-04-13T17:39:36.515Z,28.08
2023-04-13T17:42:05.679Z,29.25
2023-04-13T17:44:38.752Z,36.53
2023-04-13T17:47:07.480Z,37.47
2023-04-13T17:49:35.846Z,35.25
2023-04-13T17:52:04.431Z,30.20
2023-04-13T17:54:32.789Z,27.45
2023-04-13T17:57:02.254Z,23.85
2023-04-13T17:59:30.551Z,25.35
2023-04-13T18:02:00.876Z,28.23
2023-04-13T18:04:29.371Z,26.73
2023-04-13T18:06:57.985Z,31.00
2023-04-13T18:09:29.464Z,27.40
2023-04-13T18:11:59.514Z,28.77
2023-04-13T18:14:27.856Z,31.67
2023-04-13T18:16:56.389Z,28.65
2023-04-13T18:19:27.376Z,28.58
2023-04-13T18:21:56.154Z,28.75
2023-04-13T18:24:24.396Z,29.75
2023-04-13T18:26:56.220Z,34.05
2023-04-13T18:31:53.623Z,32.58
2023-04-13T18:34:22.333Z,37.70
2023-04-13T18:36:54.134Z,37.42
2023-04-13T18:39:22.424Z,34.45
2023-04-13T18:41:51.176Z,39.67
2023-04-13T18:44:19.436Z,41.55
2023-04-13T18:46:48.279Z,37.55
2023-04-13T18:49:16.878Z,42.75
2023-04-13T18:51:45.620Z,42.65
2023-04-13T18:54:16.381Z,44.60
2023-04-13T18:56:45.091Z,37.95
2023-04-13T18:59:13.293Z,38.63
2023-04-13T19:01:41.991Z,39.20
2023-04-13T19:04:10.452Z,45.30
2023-04-13T19:06:39.977Z,42.00
2023-04-13T19:09:08.511Z,42.03
2023-04-13T19:11:49.183Z,52.78
2023-04-13T19:14:17.561Z,64.03
2023-04-13T19:16:48.046Z,61.60
2023-04-13T19:19:16.714Z,45.45
2023-04-13T19:21:45.762Z,44.95
2023-04-13T19:24:17.595Z,41.83
2023-04-13T19:26:49.653Z,35.40
2023-04-13T19:29:17.873Z,35.63
2023-04-13T19:31:47.446Z,38.67
2023-04-13T19:34:15.771Z,34.05
2023-04-13T19:36:44.319Z,28.48
2023-04-13T19:39:12.560Z,27.90
2023-04-13T19:41:42.208Z,27.73
2023-04-13T19:44:14.087Z,25.08
2023-04-13T19:46:42.804Z,32.30
2023-04-13T19:49:11.144Z,28.17
2023-04-13T19:51:39.762Z,33.58
2023-04-13T19:54:08.163Z,29.60
2023-04-13T19:56:36.689Z,26.85
2023-04-13T19:59:06.200Z,32.28
2023-04-13T20:01:36.414Z,35.83
2023-04-13T20:04:05.917Z,44.35
2023-04-13T20:06:34.876Z,40.97
2023-04-13T20:09:10.902Z,44.75
2023-04-13T20:11:39.577Z,41.10
2023-04-13T20:14:08.030Z,40.35
2023-04-13T20:16:38.110Z,47.28
2023-04-13T20:19:09.356Z,52.67
2023-04-13T20:21:38.381Z,53.90
2023-04-13T20:24:07.059Z,35.97
2023-04-13T20:26:35.681Z,41.47
2023-04-13T20:29:05.250Z,34.60
2023-04-13T20:31:34.717Z,34.95
2023-04-13T20:34:04.461Z,34.22
2023-04-13T20:36:32.887Z,37.95
2023-04-13T20:39:01.237Z,36.03
2023-04-13T20:41:32.499Z,36.80
2023-04-13T20:44:01.227Z,32.97
2023-04-13T20:46:34.743Z,34.63
2023-04-13T20:49:05.561Z,35.33
2023-04-13T20:51:34.391Z,35.45
2023-04-13T20:54:05.715Z,37.13
2023-04-13T20:56:34.445Z,36.70
2023-04-13T20:59:03.370Z,39.17
2023-04-13T21:01:31.924Z,38.53
2023-04-13T21:04:00.574Z,38.05
2023-04-13T21:06:31.943Z,36.30
2023-04-13T21:09:00.186Z,37.90
2023-04-13T21:11:28.651Z,38.50
2023-04-13T21:13:56.831Z,41.17
2023-04-13T21:16:26.607Z,39.03
2023-04-13T21:18:54.946Z,38.78
2023-04-13T21:21:25.012Z,42.33
2023-04-13T21:23:55.493Z,42.45
2023-04-13T21:26:25.225Z,43.58
2023-04-13T21:28:54.823Z,40.28
2023-04-13T21:31:23.287Z,40.38
2023-04-13T21:33:51.471Z,37.80
2023-04-13T21:38:50.966Z,38.45
2023-04-13T21:41:21.916Z,36.30
2023-04-13T21:43:50.024Z,41.42
2023-04-13T21:46:19.418Z,36.45
2023-04-13T21:48:47.785Z,35.70
2023-04-13T21:51:16.366Z,33.80
2023-04-13T21:53:44.713Z,34.17
2023-04-13T21:56:13.149Z,34.70
2023-04-13T21:58:44.526Z,32.08
2023-04-13T22:01:14.042Z,29.52
2023-04-13T22:03:44.610Z,30.48
2023-04-13T22:06:13.295Z,39.58
2023-04-13T22:08:41.832Z,38.17
2023-04-13T22:11:10.835Z,32.17
2023-04-13T22:13:39.069Z,34.03
2023-04-13T22:16:09.685Z,35.28
2023-04-13T22:18:37.994Z,33.65
2023-04-13T22:21:07.056Z,32.17
2023-04-13T22:23:35.262Z,29.70
2023-04-13T22:26:03.838Z,30.25
2023-04-13T22:28:32.606Z,25.08
2023-04-13T22:31:08.751Z,24.85
2023-04-13T22:33:37.775Z,26.90
2023-04-13T22:36:07.425Z,23.50
2023-04-13T22:38:35.660Z,18.75
2023-04-13T22:41:07.694Z,19.58
2023-04-13T22:43:35.939Z,26.80
2023-04-13T22:46:04.608Z,25.05
2023-04-13T22:48:34.145Z,23.60
2023-04-13T22:51:03.611Z,22.45
2023-04-13T22:53:32.386Z,18.95
2023-04-13T22:56:01.320Z,21.67
2023-04-13T22:58:29.763Z,22.15
2023-04-13T23:00:58.190Z,22.40
2023-04-13T23:03:27.558Z,21.92
2023-04-13T23:05:57.605Z,20.08
2023-04-13T23:08:25.886Z,19.85
2023-04-13T23:10:54.303Z,23.50
2023-04-13T23:13:22.465Z,19.98
2023-04-13T23:15:51.018Z,23.48
2023-04-13T23:18:19.431Z,21.48
2023-04-13T23:20:47.777Z,19.80
2023-04-13T23:23:17.297Z,18.35
2023-04-13T23:25:50.177Z,26.50
2023-04-13T23:28:18.430Z,27.55
2023-04-13T23:30:47.019Z,30.30
2023-04-13T23:33:15.193Z,32.08
2023-04-13T23:35:43.833Z,27.98
2023-04-13T23:38:11.973Z,30.33
2023-04-13T23:40:41.687Z,30.35
2023-04-13T23:43:09.864Z,31.25
2023-04-13T23:45:38.548Z,30.70
2023-04-13T23:48:07.304Z,29.17
2023-04-13T23:50:37.069Z,34.95
2023-04-13T23:53:05.325Z,29.38
2023-04-13T23:55:33.831Z,33.40
2023-04-13T23:58:03.472Z,34.83
